-2°C Temp
-5°C Dewpoint
80% Humidity
Temperature
10 KM/H
6 MPH
5 KTS
60°
East North
East

Wind Speed
Clear
Conditions
Pressure 1018.92 (hPa) - 30.09 (in)
Visibility 6.2 (mi) - 10.0 (km)

Current Conditions
LKLN
Location Plzen Line 6km (3.2mi)
Metar :LKLN 191100Z AUTO 06005KT CAVOK M02/M05 Q1019
Sat 19th January 12:00 pm

Airport
  Metar Aviation API Data Provided by https://www.checkwx.com/ CSS/SVG/PHP scripts by weather34.com © 2015-2019